sensor_id;sensor_type;location;lat;lon;timestamp;temperature;humidity
43183;DHT22;28802;38.578;-0.066;2023-06-14T00:02:10;19.60;99.90
43183;DHT22;28802;38.578;-0.066;2023-06-14T00:04:36;19.60;99.90
43183;DHT22;28802;38.578;-0.066;2023-06-14T00:07:03;19.60;99.90
43183;DHT22;28802;38.578;-0.066;2023-06-14T00:09:29;19.70;99.90
43183;DHT22;28802;38.578;-0.066;2023-06-14T00:11:55;19.70;99.90
43183;DHT22;28802;38.578;-0.066;2023-06-14T00:14:21;19.60;99.90
43183;DHT22;28802;38.578;-0.066;2023-06-14T00:16:47;19.60;99.90
43183;DHT22;28802;38.578;-0.066;2023-06-14T00:19:13;19.70;99.90
43183;DHT22;28802;38.578;-0.066;2023-06-14T00:21:39;19.70;99.90
43183;DHT22;28802;38.578;-0.066;2023-06-14T00:24:07;19.70;99.90
43183;DHT22;28802;38.578;-0.066;2023-06-14T00:26:33;19.70;99.90
43183;DHT22;28802;38.578;-0.066;2023-06-14T00:28:59;19.80;99.90
43183;DHT22;28802;38.578;-0.066;2023-06-14T00:31:26;19.90;99.90
43183;DHT22;28802;38.578;-0.066;2023-06-14T00:33:53;20.00;99.90
43183;DHT22;28802;38.578;-0.066;2023-06-14T00:36:19;20.10;99.90
43183;DHT22;28802;38.578;-0.066;2023-06-14T00:38:45;20.20;99.90
43183;DHT22;28802;38.578;-0.066;2023-06-14T00:41:11;20.20;99.90
43183;DHT22;28802;38.578;-0.066;2023-06-14T00:43:37;20.20;99.90
43183;DHT22;28802;38.578;-0.066;2023-06-14T00:46:03;20.40;99.90
43183;DHT22;28802;38.578;-0.066;2023-06-14T00:48:30;20.40;99.90
43183;DHT22;28802;38.578;-0.066;2023-06-14T00:50:58;20.50;99.90
43183;DHT22;28802;38.578;-0.066;2023-06-14T00:53:28;20.50;99.90
43183;DHT22;28802;38.578;-0.066;2023-06-14T00:55:55;20.50;99.90
43183;DHT22;28802;38.578;-0.066;2023-06-14T00:58:22;20.70;99.90
43183;DHT22;28802;38.578;-0.066;2023-06-14T01:00:48;20.70;99.90
43183;DHT22;28802;38.578;-0.066;2023-06-14T01:03:14;20.60;99.90
43183;DHT22;28802;38.578;-0.066;2023-06-14T01:05:45;20.70;99.90
43183;DHT22;28802;38.578;-0.066;2023-06-14T01:13:46;20.80;99.90
43183;DHT22;28802;38.578;-0.066;2023-06-14T01:16:12;20.70;99.90
43183;DHT22;28802;38.578;-0.066;2023-06-14T01:18:38;20.60;99.90
43183;DHT22;28802;38.578;-0.066;2023-06-14T01:21:04;20.60;99.90
43183;DHT22;28802;38.578;-0.066;2023-06-14T01:23:32;20.30;99.90
43183;DHT22;28802;38.578;-0.066;2023-06-14T01:25:59;20.20;99.90
43183;DHT22;28802;38.578;-0.066;2023-06-14T01:28:27;20.20;99.90
43183;DHT22;28802;38.578;-0.066;2023-06-14T01:31:01;20.20;99.90
43183;DHT22;28802;38.578;-0.066;2023-06-14T01:33:30;20.20;99.90
43183;DHT22;28802;38.578;-0.066;2023-06-14T01:35:58;20.20;99.90
43183;DHT22;28802;38.578;-0.066;2023-06-14T01:38:25;20.20;99.90
43183;DHT22;28802;38.578;-0.066;2023-06-14T01:40:54;20.10;99.90
43183;DHT22;28802;38.578;-0.066;2023-06-14T01:43:21;20.10;99.90
43183;DHT22;28802;38.578;-0.066;2023-06-14T01:45:48;20.10;99.90
43183;DHT22;28802;38.578;-0.066;2023-06-14T01:48:18;20.00;99.90
43183;DHT22;28802;38.578;-0.066;2023-06-14T01:50:44;19.90;99.90
43183;DHT22;28802;38.578;-0.066;2023-06-14T01:53:10;19.90;99.90
43183;DHT22;28802;38.578;-0.066;2023-06-14T01:55:37;19.90;99.90
43183;DHT22;28802;38.578;-0.066;2023-06-14T01:58:06;19.90;99.90
43183;DHT22;28802;38.578;-0.066;2023-06-14T02:00:32;19.80;99.90
43183;DHT22;28802;38.578;-0.066;2023-06-14T02:02:58;19.70;99.90
43183;DHT22;28802;38.578;-0.066;2023-06-14T02:05:25;19.70;99.90
43183;DHT22;28802;38.578;-0.066;2023-06-14T02:07:53;19.70;99.90
43183;DHT22;28802;38.578;-0.066;2023-06-14T02:10:19;19.60;99.90
43183;DHT22;28802;38.578;-0.066;2023-06-14T02:12:46;19.50;99.90
43183;DHT22;28802;38.578;-0.066;2023-06-14T02:15:12;19.40;99.90
43183;DHT22;28802;38.578;-0.066;2023-06-14T02:17:46;19.40;99.90
43183;DHT22;28802;38.578;-0.066;2023-06-14T02:20:13;19.40;99.90
43183;DHT22;28802;38.578;-0.066;2023-06-14T02:22:39;19.40;99.90
43183;DHT22;28802;38.578;-0.066;2023-06-14T02:25:07;19.30;99.90
43183;DHT22;28802;38.578;-0.066;2023-06-14T02:27:33;19.30;99.90
43183;DHT22;28802;38.578;-0.066;2023-06-14T02:29:59;19.30;99.90
43183;DHT22;28802;38.578;-0.066;2023-06-14T02:32:26;19.30;99.90
43183;DHT22;28802;38.578;-0.066;2023-06-14T02:34:55;19.20;99.90
43183;DHT22;28802;38.578;-0.066;2023-06-14T02:37:20;19.10;99.90
43183;DHT22;28802;38.578;-0.066;2023-06-14T02:39:47;19.10;99.90
43183;DHT22;28802;38.578;-0.066;2023-06-14T02:42:12;19.10;99.90
43183;DHT22;28802;38.578;-0.066;2023-06-14T02:44:38;19.10;99.90
43183;DHT22;28802;38.578;-0.066;2023-06-14T02:47:04;19.00;99.90
43183;DHT22;28802;38.578;-0.066;2023-06-14T02:49:30;19.00;99.90
43183;DHT22;28802;38.578;-0.066;2023-06-14T02:51:56;19.10;99.90
43183;DHT22;28802;38.578;-0.066;2023-06-14T02:54:22;19.10;99.90
43183;DHT22;28802;38.578;-0.066;2023-06-14T02:56:49;19.20;99.90
43183;DHT22;28802;38.578;-0.066;2023-06-14T02:59:15;19.20;99.90
43183;DHT22;28802;38.578;-0.066;2023-06-14T03:01:42;19.10;99.90
43183;DHT22;28802;38.578;-0.066;2023-06-14T03:04:11;19.10;99.90
43183;DHT22;28802;38.578;-0.066;2023-06-14T03:06:39;19.00;99.90
43183;DHT22;28802;38.578;-0.066;2023-06-14T03:09:07;18.90;99.90
43183;DHT22;28802;38.578;-0.066;2023-06-14T03:11:37;18.90;99.90
43183;DHT22;28802;38.578;-0.066;2023-06-14T03:14:03;19.00;99.90
43183;DHT22;28802;38.578;-0.066;2023-06-14T03:16:30;19.00;99.90
43183;DHT22;28802;38.578;-0.066;2023-06-14T03:18:58;19.00;99.90
43183;DHT22;28802;38.578;-0.066;2023-06-14T03:21:27;19.00;99.90
43183;DHT22;28802;38.578;-0.066;2023-06-14T03:23:57;19.00;99.90
43183;DHT22;28802;38.578;-0.066;2023-06-14T03:26:23;18.90;99.90
43183;DHT22;28802;38.578;-0.066;2023-06-14T03:28:52;18.90;99.90
43183;DHT22;28802;38.578;-0.066;2023-06-14T03:31:19;18.90;99.90
43183;DHT22;28802;38.578;-0.066;2023-06-14T03:33:45;18.90;99.90
43183;DHT22;28802;38.578;-0.066;2023-06-14T03:36:12;18.90;99.90
43183;DHT22;28802;38.578;-0.066;2023-06-14T03:38:39;18.90;99.90
43183;DHT22;28802;38.578;-0.066;2023-06-14T03:41:05;18.90;99.90
43183;DHT22;28802;38.578;-0.066;2023-06-14T03:43:32;18.90;99.90
43183;DHT22;28802;38.578;-0.066;2023-06-14T03:45:59;18.90;99.90
43183;DHT22;28802;38.578;-0.066;2023-06-14T03:48:26;18.90;99.90
43183;DHT22;28802;38.578;-0.066;2023-06-14T03:50:52;18.90;99.90
43183;DHT22;28802;38.578;-0.066;2023-06-14T03:53:20;18.90;99.90
43183;DHT22;28802;38.578;-0.066;2023-06-14T03:55:50;18.90;99.90
43183;DHT22;28802;38.578;-0.066;2023-06-14T03:58:19;18.90;99.90
43183;DHT22;28802;38.578;-0.066;2023-06-14T04:00:46;18.90;99.90
43183;DHT22;28802;38.578;-0.066;2023-06-14T04:03:12;18.80;99.90
43183;DHT22;28802;38.578;-0.066;2023-06-14T04:05:41;18.90;99.90
43183;DHT22;28802;38.578;-0.066;2023-06-14T04:08:08;18.80;99.90
43183;DHT22;28802;38.578;-0.066;2023-06-14T04:10:35;18.80;99.90
43183;DHT22;28802;38.578;-0.066;2023-06-14T04:13:01;18.80;99.90
43183;DHT22;28802;38.578;-0.066;2023-06-14T04:15:27;18.80;99.90
43183;DHT22;28802;38.578;-0.066;2023-06-14T04:17:57;18.80;99.90
43183;DHT22;28802;38.578;-0.066;2023-06-14T04:20:23;18.80;99.90
43183;DHT22;28802;38.578;-0.066;2023-06-14T04:22:52;18.80;99.90
43183;DHT22;28802;38.578;-0.066;2023-06-14T04:25:19;18.80;99.90
43183;DHT22;28802;38.578;-0.066;2023-06-14T04:27:46;18.80;99.90
43183;DHT22;28802;38.578;-0.066;2023-06-14T04:30:13;18.80;99.90
43183;DHT22;28802;38.578;-0.066;2023-06-14T04:32:47;18.80;99.90
43183;DHT22;28802;38.578;-0.066;2023-06-14T04:35:13;18.80;99.90
43183;DHT22;28802;38.578;-0.066;2023-06-14T04:37:42;18.80;99.90
43183;DHT22;28802;38.578;-0.066;2023-06-14T04:40:10;18.70;99.90
43183;DHT22;28802;38.578;-0.066;2023-06-14T04:42:37;18.70;99.90
43183;DHT22;28802;38.578;-0.066;2023-06-14T04:45:06;18.70;99.90
43183;DHT22;28802;38.578;-0.066;2023-06-14T04:47:33;18.80;99.90
43183;DHT22;28802;38.578;-0.066;2023-06-14T04:50:00;18.80;99.90
43183;DHT22;28802;38.578;-0.066;2023-06-14T04:52:29;18.80;99.90
43183;DHT22;28802;38.578;-0.066;2023-06-14T04:54:56;18.80;99.90
43183;DHT22;28802;38.578;-0.066;2023-06-14T04:57:23;18.90;99.90
43183;DHT22;28802;38.578;-0.066;2023-06-14T04:59:52;18.90;99.90
43183;DHT22;28802;38.578;-0.066;2023-06-14T05:02:24;19.00;99.90
43183;DHT22;28802;38.578;-0.066;2023-06-14T05:04:53;19.20;99.90
43183;DHT22;28802;38.578;-0.066;2023-06-14T05:07:19;19.50;99.90
43183;DHT22;28802;38.578;-0.066;2023-06-14T05:09:47;19.80;99.90
43183;DHT22;28802;38.578;-0.066;2023-06-14T05:12:13;20.00;99.90
43183;DHT22;28802;38.578;-0.066;2023-06-14T05:14:40;20.30;99.90
43183;DHT22;28802;38.578;-0.066;2023-06-14T05:17:06;20.60;99.90
43183;DHT22;28802;38.578;-0.066;2023-06-14T05:19:32;20.90;99.90
43183;DHT22;28802;38.578;-0.066;2023-06-14T05:21:58;21.10;99.90
43183;DHT22;28802;38.578;-0.066;2023-06-14T05:24:24;21.50;99.90
43183;DHT22;28802;38.578;-0.066;2023-06-14T05:26:50;21.90;99.90
43183;DHT22;28802;38.578;-0.066;2023-06-14T05:29:19;22.20;99.90
43183;DHT22;28802;38.578;-0.066;2023-06-14T05:31:45;22.50;99.90
43183;DHT22;28802;38.578;-0.066;2023-06-14T05:34:12;22.90;99.90
43183;DHT22;28802;38.578;-0.066;2023-06-14T05:36:38;23.20;99.90
43183;DHT22;28802;38.578;-0.066;2023-06-14T05:39:04;23.60;99.90
43183;DHT22;28802;38.578;-0.066;2023-06-14T05:41:31;24.00;99.90
43183;DHT22;28802;38.578;-0.066;2023-06-14T05:43:57;24.30;99.90
43183;DHT22;28802;38.578;-0.066;2023-06-14T05:46:23;24.70;99.90
43183;DHT22;28802;38.578;-0.066;2023-06-14T05:48:53;25.00;99.90
43183;DHT22;28802;38.578;-0.066;2023-06-14T05:51:19;25.30;99.90
43183;DHT22;28802;38.578;-0.066;2023-06-14T05:53:45;25.60;99.90
43183;DHT22;28802;38.578;-0.066;2023-06-14T05:56:12;25.80;99.90
43183;DHT22;28802;38.578;-0.066;2023-06-14T05:58:38;26.20;99.90
43183;DHT22;28802;38.578;-0.066;2023-06-14T06:01:04;26.40;99.90
43183;DHT22;28802;38.578;-0.066;2023-06-14T06:03:30;26.70;99.90
43183;DHT22;28802;38.578;-0.066;2023-06-14T06:05:56;27.00;99.90
43183;DHT22;28802;38.578;-0.066;2023-06-14T06:08:21;27.20;99.90
43183;DHT22;28802;38.578;-0.066;2023-06-14T06:10:47;27.00;99.90
43183;DHT22;28802;38.578;-0.066;2023-06-14T06:13:13;26.90;99.90
43183;DHT22;28802;38.578;-0.066;2023-06-14T06:15:39;27.50;99.90
43183;DHT22;28802;38.578;-0.066;2023-06-14T06:18:05;27.80;99.90
43183;DHT22;28802;38.578;-0.066;2023-06-14T06:20:32;28.00;99.90
43183;DHT22;28802;38.578;-0.066;2023-06-14T06:22:58;28.70;99.90
43183;DHT22;28802;38.578;-0.066;2023-06-14T06:25:25;29.30;99.90
43183;DHT22;28802;38.578;-0.066;2023-06-14T06:27:53;29.70;99.90
43183;DHT22;28802;38.578;-0.066;2023-06-14T06:30:20;30.10;99.90
43183;DHT22;28802;38.578;-0.066;2023-06-14T06:32:46;30.50;99.90
43183;DHT22;28802;38.578;-0.066;2023-06-14T06:35:13;31.00;99.90
43183;DHT22;28802;38.578;-0.066;2023-06-14T06:37:41;31.10;99.90
43183;DHT22;28802;38.578;-0.066;2023-06-14T06:40:07;31.30;99.90
43183;DHT22;28802;38.578;-0.066;2023-06-14T06:42:34;31.80;99.90
43183;DHT22;28802;38.578;-0.066;2023-06-14T06:45:03;32.10;99.90
43183;DHT22;28802;38.578;-0.066;2023-06-14T06:47:29;31.10;99.90
43183;DHT22;28802;38.578;-0.066;2023-06-14T06:49:55;29.90;99.90
43183;DHT22;28802;38.578;-0.066;2023-06-14T06:52:21;28.00;99.90
43183;DHT22;28802;38.578;-0.066;2023-06-14T06:54:47;26.30;99.90
43183;DHT22;28802;38.578;-0.066;2023-06-14T06:57:13;26.00;99.90
43183;DHT22;28802;38.578;-0.066;2023-06-14T06:59:39;25.70;99.90
43183;DHT22;28802;38.578;-0.066;2023-06-14T07:02:05;26.00;99.90
43183;DHT22;28802;38.578;-0.066;2023-06-14T07:04:31;26.60;99.90
43183;DHT22;28802;38.578;-0.066;2023-06-14T07:06:57;26.60;99.90
43183;DHT22;28802;38.578;-0.066;2023-06-14T07:09:23;27.00;99.90
43183;DHT22;28802;38.578;-0.066;2023-06-14T07:11:50;27.10;99.90
43183;DHT22;28802;38.578;-0.066;2023-06-14T07:14:16;27.80;99.90
43183;DHT22;28802;38.578;-0.066;2023-06-14T07:16:42;27.80;99.90
43183;DHT22;28802;38.578;-0.066;2023-06-14T07:19:10;28.10;99.90
43183;DHT22;28802;38.578;-0.066;2023-06-14T07:21:36;29.50;99.90
43183;DHT22;28802;38.578;-0.066;2023-06-14T07:24:07;30.80;99.90
43183;DHT22;28802;38.578;-0.066;2023-06-14T07:26:34;32.10;99.90
43183;DHT22;28802;38.578;-0.066;2023-06-14T07:29:01;33.10;99.90
43183;DHT22;28802;38.578;-0.066;2023-06-14T07:31:27;33.90;99.90
43183;DHT22;28802;38.578;-0.066;2023-06-14T07:33:53;34.60;99.90
43183;DHT22;28802;38.578;-0.066;2023-06-14T07:36:19;34.70;99.90
43183;DHT22;28802;38.578;-0.066;2023-06-14T07:38:46;34.70;99.90
43183;DHT22;28802;38.578;-0.066;2023-06-14T07:41:11;35.10;99.90
43183;DHT22;28802;38.578;-0.066;2023-06-14T07:43:37;34.80;99.90
43183;DHT22;28802;38.578;-0.066;2023-06-14T07:46:03;32.80;99.90
43183;DHT22;28802;38.578;-0.066;2023-06-14T07:48:29;31.10;99.90
43183;DHT22;28802;38.578;-0.066;2023-06-14T07:50:55;30.00;99.90
43183;DHT22;28802;38.578;-0.066;2023-06-14T07:53:21;30.10;99.90
43183;DHT22;28802;38.578;-0.066;2023-06-14T07:55:47;30.30;99.90
43183;DHT22;28802;38.578;-0.066;2023-06-14T07:58:14;30.40;99.90
43183;DHT22;28802;38.578;-0.066;2023-06-14T08:00:40;30.50;99.90
43183;DHT22;28802;38.578;-0.066;2023-06-14T08:03:06;30.30;99.90
43183;DHT22;28802;38.578;-0.066;2023-06-14T08:05:32;29.70;99.90
43183;DHT22;28802;38.578;-0.066;2023-06-14T08:07:58;30.20;99.90
43183;DHT22;28802;38.578;-0.066;2023-06-14T08:10:24;30.50;99.90
43183;DHT22;28802;38.578;-0.066;2023-06-14T08:12:50;30.50;99.90
43183;DHT22;28802;38.578;-0.066;2023-06-14T08:15:17;30.10;99.90
43183;DHT22;28802;38.578;-0.066;2023-06-14T08:17:43;29.90;99.90
43183;DHT22;28802;38.578;-0.066;2023-06-14T08:20:10;30.00;99.90
43183;DHT22;28802;38.578;-0.066;2023-06-14T08:22:36;30.20;99.90
43183;DHT22;28802;38.578;-0.066;2023-06-14T08:25:03;30.40;99.90
43183;DHT22;28802;38.578;-0.066;2023-06-14T08:27:30;30.50;99.90
43183;DHT22;28802;38.578;-0.066;2023-06-14T08:29:56;29.30;99.90
43183;DHT22;28802;38.578;-0.066;2023-06-14T08:32:22;30.10;99.90
43183;DHT22;28802;38.578;-0.066;2023-06-14T08:34:48;29.30;99.90
43183;DHT22;28802;38.578;-0.066;2023-06-14T08:37:14;29.90;99.90
43183;DHT22;28802;38.578;-0.066;2023-06-14T08:39:40;30.30;99.90
43183;DHT22;28802;38.578;-0.066;2023-06-14T08:42:07;30.70;99.90
43183;DHT22;28802;38.578;-0.066;2023-06-14T08:44:34;29.30;99.90
43183;DHT22;28802;38.578;-0.066;2023-06-14T08:47:00;29.10;99.90
43183;DHT22;28802;38.578;-0.066;2023-06-14T08:49:26;29.70;99.90
43183;DHT22;28802;38.578;-0.066;2023-06-14T08:51:57;30.40;99.90
43183;DHT22;28802;38.578;-0.066;2023-06-14T08:54:25;29.80;99.90
43183;DHT22;28802;38.578;-0.066;2023-06-14T08:56:53;29.90;99.90
43183;DHT22;28802;38.578;-0.066;2023-06-14T08:59:31;29.90;99.90
43183;DHT22;28802;38.578;-0.066;2023-06-14T09:02:05;30.20;99.90
43183;DHT22;28802;38.578;-0.066;2023-06-14T09:04:32;30.10;99.90
43183;DHT22;28802;38.578;-0.066;2023-06-14T09:06:59;30.10;99.90
43183;DHT22;28802;38.578;-0.066;2023-06-14T09:09:24;30.60;99.90
43183;DHT22;28802;38.578;-0.066;2023-06-14T09:11:52;30.60;99.90
43183;DHT22;28802;38.578;-0.066;2023-06-14T09:14:18;30.70;99.90
43183;DHT22;28802;38.578;-0.066;2023-06-14T09:16:44;30.20;99.90
43183;DHT22;28802;38.578;-0.066;2023-06-14T09:19:23;30.10;99.90
43183;DHT22;28802;38.578;-0.066;2023-06-14T09:21:49;29.10;99.90
43183;DHT22;28802;38.578;-0.066;2023-06-14T09:24:17;28.40;99.90
43183;DHT22;28802;38.578;-0.066;2023-06-14T09:26:43;28.30;99.90
43183;DHT22;28802;38.578;-0.066;2023-06-14T09:29:09;28.70;99.90
43183;DHT22;28802;38.578;-0.066;2023-06-14T09:31:35;29.70;99.90
43183;DHT22;28802;38.578;-0.066;2023-06-14T09:34:02;30.80;99.90
43183;DHT22;28802;38.578;-0.066;2023-06-14T09:36:28;29.80;99.90
43183;DHT22;28802;38.578;-0.066;2023-06-14T09:39:03;29.60;99.90
43183;DHT22;28802;38.578;-0.066;2023-06-14T09:41:38;29.80;99.90
43183;DHT22;28802;38.578;-0.066;2023-06-14T09:44:06;30.00;99.90
43183;DHT22;28802;38.578;-0.066;2023-06-14T09:46:34;29.80;99.90
43183;DHT22;28802;38.578;-0.066;2023-06-14T09:49:00;30.00;99.90
43183;DHT22;28802;38.578;-0.066;2023-06-14T09:51:27;29.30;99.90
43183;DHT22;28802;38.578;-0.066;2023-06-14T09:54:00;29.70;99.90
43183;DHT22;28802;38.578;-0.066;2023-06-14T09:56:37;30.10;99.90
43183;DHT22;28802;38.578;-0.066;2023-06-14T09:59:06;30.20;99.90
43183;DHT22;28802;38.578;-0.066;2023-06-14T10:01:36;30.70;99.90
43183;DHT22;28802;38.578;-0.066;2023-06-14T10:04:07;30.50;99.90
43183;DHT22;28802;38.578;-0.066;2023-06-14T10:06:39;28.90;99.90
43183;DHT22;28802;38.578;-0.066;2023-06-14T10:09:08;27.90;99.90
43183;DHT22;28802;38.578;-0.066;2023-06-14T10:11:36;27.70;99.90
43183;DHT22;28802;38.578;-0.066;2023-06-14T10:14:05;27.60;99.90
43183;DHT22;28802;38.578;-0.066;2023-06-14T10:24:20;28.00;99.90
43183;DHT22;28802;38.578;-0.066;2023-06-14T10:26:54;28.10;99.90
43183;DHT22;28802;38.578;-0.066;2023-06-14T10:29:20;28.20;99.90
43183;DHT22;28802;38.578;-0.066;2023-06-14T10:31:48;28.20;99.90
43183;DHT22;28802;38.578;-0.066;2023-06-14T10:34:25;27.50;99.90
43183;DHT22;28802;38.578;-0.066;2023-06-14T10:37:05;27.30;99.90
43183;DHT22;28802;38.578;-0.066;2023-06-14T10:39:52;27.30;99.90
43183;DHT22;28802;38.578;-0.066;2023-06-14T10:42:19;27.70;99.90
43183;DHT22;28802;38.578;-0.066;2023-06-14T10:44:49;27.80;99.90
43183;DHT22;28802;38.578;-0.066;2023-06-14T10:47:25;27.30;99.90
43183;DHT22;28802;38.578;-0.066;2023-06-14T10:50:02;27.00;99.90
43183;DHT22;28802;38.578;-0.066;2023-06-14T10:52:33;26.90;99.90
43183;DHT22;28802;38.578;-0.066;2023-06-14T10:57:48;27.40;99.90
43183;DHT22;28802;38.578;-0.066;2023-06-14T11:00:18;28.60;99.90
43183;DHT22;28802;38.578;-0.066;2023-06-14T11:05:49;28.00;99.90
43183;DHT22;28802;38.578;-0.066;2023-06-14T11:11:00;29.40;99.90
43183;DHT22;28802;38.578;-0.066;2023-06-14T11:13:26;29.20;99.90
43183;DHT22;28802;38.578;-0.066;2023-06-14T11:15:52;29.60;99.90
43183;DHT22;28802;38.578;-0.066;2023-06-14T11:18:23;30.10;99.90
43183;DHT22;28802;38.578;-0.066;2023-06-14T11:20:55;30.50;99.90
43183;DHT22;28802;38.578;-0.066;2023-06-14T11:23:21;29.40;99.90
43183;DHT22;28802;38.578;-0.066;2023-06-14T11:25:52;29.10;99.90
43183;DHT22;28802;38.578;-0.066;2023-06-14T11:28:18;29.70;99.90
43183;DHT22;28802;38.578;-0.066;2023-06-14T11:30:45;29.80;99.90
43183;DHT22;28802;38.578;-0.066;2023-06-14T11:33:17;28.80;99.90
43183;DHT22;28802;38.578;-0.066;2023-06-14T11:35:44;28.50;99.90
43183;DHT22;28802;38.578;-0.066;2023-06-14T11:38:11;28.60;99.90
43183;DHT22;28802;38.578;-0.066;2023-06-14T11:40:38;28.20;99.90
43183;DHT22;28802;38.578;-0.066;2023-06-14T11:43:04;27.60;99.90
43183;DHT22;28802;38.578;-0.066;2023-06-14T11:45:30;27.40;99.90
43183;DHT22;28802;38.578;-0.066;2023-06-14T11:47:57;27.70;99.90
43183;DHT22;28802;38.578;-0.066;2023-06-14T11:50:24;28.20;99.90
43183;DHT22;28802;38.578;-0.066;2023-06-14T11:52:58;28.20;99.90
43183;DHT22;28802;38.578;-0.066;2023-06-14T11:55:25;28.30;99.90
43183;DHT22;28802;38.578;-0.066;2023-06-14T11:57:54;28.40;99.90
43183;DHT22;28802;38.578;-0.066;2023-06-14T12:00:25;27.50;99.90
43183;DHT22;28802;38.578;-0.066;2023-06-14T12:02:54;26.90;99.90
43183;DHT22;28802;38.578;-0.066;2023-06-14T12:05:25;26.90;99.90
43183;DHT22;28802;38.578;-0.066;2023-06-14T12:08:02;27.40;99.90
43183;DHT22;28802;38.578;-0.066;2023-06-14T12:10:28;27.80;99.90
43183;DHT22;28802;38.578;-0.066;2023-06-14T12:13:00;28.00;99.90
43183;DHT22;28802;38.578;-0.066;2023-06-14T12:15:29;28.20;99.90
43183;DHT22;28802;38.578;-0.066;2023-06-14T12:17:58;27.60;99.90
43183;DHT22;28802;38.578;-0.066;2023-06-14T12:20:29;27.30;99.90
43183;DHT22;28802;38.578;-0.066;2023-06-14T12:22:56;27.40;99.90
43183;DHT22;28802;38.578;-0.066;2023-06-14T12:25:33;26.80;99.90
43183;DHT22;28802;38.578;-0.066;2023-06-14T12:28:07;26.90;99.90
43183;DHT22;28802;38.578;-0.066;2023-06-14T12:30:35;26.80;99.90
43183;DHT22;28802;38.578;-0.066;2023-06-14T12:33:04;26.70;99.90
43183;DHT22;28802;38.578;-0.066;2023-06-14T12:35:31;26.60;99.90
43183;DHT22;28802;38.578;-0.066;2023-06-14T12:37:57;26.40;99.90
43183;DHT22;28802;38.578;-0.066;2023-06-14T12:40:23;25.80;99.90
43183;DHT22;28802;38.578;-0.066;2023-06-14T12:42:49;25.40;99.90
43183;DHT22;28802;38.578;-0.066;2023-06-14T12:45:15;25.00;99.90
43183;DHT22;28802;38.578;-0.066;2023-06-14T12:47:41;25.00;99.90
43183;DHT22;28802;38.578;-0.066;2023-06-14T12:50:08;24.90;99.90
43183;DHT22;28802;38.578;-0.066;2023-06-14T12:52:33;25.00;99.90
43183;DHT22;28802;38.578;-0.066;2023-06-14T12:55:03;25.10;99.90
43183;DHT22;28802;38.578;-0.066;2023-06-14T12:57:29;25.10;99.90
43183;DHT22;28802;38.578;-0.066;2023-06-14T12:59:55;25.00;99.90
43183;DHT22;28802;38.578;-0.066;2023-06-14T13:02:21;24.80;99.90
43183;DHT22;28802;38.578;-0.066;2023-06-14T13:04:51;24.70;99.90
43183;DHT22;28802;38.578;-0.066;2023-06-14T13:07:17;24.90;99.90
43183;DHT22;28802;38.578;-0.066;2023-06-14T13:09:43;25.10;99.90
43183;DHT22;28802;38.578;-0.066;2023-06-14T13:12:12;25.00;99.90
43183;DHT22;28802;38.578;-0.066;2023-06-14T13:14:41;24.80;99.90
43183;DHT22;28802;38.578;-0.066;2023-06-14T13:17:10;24.70;99.90
43183;DHT22;28802;38.578;-0.066;2023-06-14T13:19:37;24.70;99.90
43183;DHT22;28802;38.578;-0.066;2023-06-14T13:22:03;24.70;99.90
43183;DHT22;28802;38.578;-0.066;2023-06-14T13:24:29;24.80;99.90
43183;DHT22;28802;38.578;-0.066;2023-06-14T13:26:56;24.80;99.90
43183;DHT22;28802;38.578;-0.066;2023-06-14T13:29:23;24.70;99.90
43183;DHT22;28802;38.578;-0.066;2023-06-14T13:31:49;24.60;99.90
43183;DHT22;28802;38.578;-0.066;2023-06-14T13:34:15;24.60;99.90
43183;DHT22;28802;38.578;-0.066;2023-06-14T13:36:41;24.60;99.90
43183;DHT22;28802;38.578;-0.066;2023-06-14T13:39:07;24.60;99.90
43183;DHT22;28802;38.578;-0.066;2023-06-14T13:41:32;24.70;99.90
43183;DHT22;28802;38.578;-0.066;2023-06-14T13:44:01;24.70;99.90
43183;DHT22;28802;38.578;-0.066;2023-06-14T13:46:30;24.80;99.90
43183;DHT22;28802;38.578;-0.066;2023-06-14T13:48:56;24.80;99.90
43183;DHT22;28802;38.578;-0.066;2023-06-14T13:51:23;25.10;99.90
43183;DHT22;28802;38.578;-0.066;2023-06-14T13:53:49;25.10;99.90
43183;DHT22;28802;38.578;-0.066;2023-06-14T13:56:16;25.10;99.90
43183;DHT22;28802;38.578;-0.066;2023-06-14T13:58:43;25.00;99.90
43183;DHT22;28802;38.578;-0.066;2023-06-14T14:01:09;25.10;99.90
43183;DHT22;28802;38.578;-0.066;2023-06-14T14:03:35;25.30;99.90
43183;DHT22;28802;38.578;-0.066;2023-06-14T14:06:02;25.20;99.90
43183;DHT22;28802;38.578;-0.066;2023-06-14T14:08:28;25.20;99.90
43183;DHT22;28802;38.578;-0.066;2023-06-14T14:10:54;25.10;99.90
43183;DHT22;28802;38.578;-0.066;2023-06-14T14:13:21;25.00;99.90
43183;DHT22;28802;38.578;-0.066;2023-06-14T14:15:47;25.30;99.90
43183;DHT22;28802;38.578;-0.066;2023-06-14T14:18:14;25.40;99.90
43183;DHT22;28802;38.578;-0.066;2023-06-14T14:20:41;25.30;99.90
43183;DHT22;28802;38.578;-0.066;2023-06-14T14:23:06;25.20;99.90
43183;DHT22;28802;38.578;-0.066;2023-06-14T14:25:32;25.20;99.90
43183;DHT22;28802;38.578;-0.066;2023-06-14T14:27:58;25.20;99.90
43183;DHT22;28802;38.578;-0.066;2023-06-14T14:30:24;25.20;99.90
43183;DHT22;28802;38.578;-0.066;2023-06-14T14:32:50;25.10;99.90
43183;DHT22;28802;38.578;-0.066;2023-06-14T14:35:17;25.00;99.90
43183;DHT22;28802;38.578;-0.066;2023-06-14T14:37:43;25.10;99.90
43183;DHT22;28802;38.578;-0.066;2023-06-14T14:40:10;25.10;99.90
43183;DHT22;28802;38.578;-0.066;2023-06-14T14:42:36;25.00;99.90
43183;DHT22;28802;38.578;-0.066;2023-06-14T14:45:03;25.00;99.90
43183;DHT22;28802;38.578;-0.066;2023-06-14T14:47:28;25.10;99.90
43183;DHT22;28802;38.578;-0.066;2023-06-14T14:49:55;25.20;99.90
43183;DHT22;28802;38.578;-0.066;2023-06-14T14:52:21;25.20;99.90
43183;DHT22;28802;38.578;-0.066;2023-06-14T14:54:47;25.10;99.90
43183;DHT22;28802;38.578;-0.066;2023-06-14T14:57:13;24.90;99.90
43183;DHT22;28802;38.578;-0.066;2023-06-14T14:59:38;24.90;99.90
43183;DHT22;28802;38.578;-0.066;2023-06-14T15:02:05;25.00;99.90
43183;DHT22;28802;38.578;-0.066;2023-06-14T15:04:31;25.00;99.90
43183;DHT22;28802;38.578;-0.066;2023-06-14T15:06:57;24.80;99.90
43183;DHT22;28802;38.578;-0.066;2023-06-14T15:09:23;24.80;99.90
43183;DHT22;28802;38.578;-0.066;2023-06-14T15:11:49;24.70;99.90
43183;DHT22;28802;38.578;-0.066;2023-06-14T15:14:15;24.80;99.90
43183;DHT22;28802;38.578;-0.066;2023-06-14T15:16:41;24.70;99.90
43183;DHT22;28802;38.578;-0.066;2023-06-14T15:19:07;24.60;99.90
43183;DHT22;28802;38.578;-0.066;2023-06-14T15:21:32;24.50;99.90
43183;DHT22;28802;38.578;-0.066;2023-06-14T15:23:59;24.60;99.90
43183;DHT22;28802;38.578;-0.066;2023-06-14T15:26:24;24.60;99.90
43183;DHT22;28802;38.578;-0.066;2023-06-14T15:28:51;24.60;99.90
43183;DHT22;28802;38.578;-0.066;2023-06-14T15:31:17;24.60;99.90
43183;DHT22;28802;38.578;-0.066;2023-06-14T15:33:43;24.50;99.90
43183;DHT22;28802;38.578;-0.066;2023-06-14T15:36:10;24.60;99.90
43183;DHT22;28802;38.578;-0.066;2023-06-14T15:38:36;25.10;99.90